Terminal Aerodrome Forecast
Issued by NWS Flagstaff, AZ

Home | Current Version | Previous Version | Text Only | Print | Product List | Glossary On
Versions: 1 2 3 4 5 6 7 8 9 10 11 12 13 14
000
FTUS45 KFGZ 230500
TAFFLG
TAF
KFLG 230520Z 2306/2406 VRB05KT P6SM SCT250
     FM231200 28010G18KT P6SM SCT025 SCT250
     FM231600 04013G22KT P6SM FEW020 SCT250
     FM231800 04018G26KT P6SM SCT250
     FM240100 VRB05KT P6SM SKC=

USA.gov is the U.S. government's official web portal to all federal, state and local government web resources and services.